Time;durP1;ratioP1;P1;durP2;ratioP2;P2;SDS_P1;SDS_P2;PMS_P1;PMS_P2;Temp;Humidity;BMP_temperature;BMP_pressure;BME280_temperature;BME280_humidity;BME280_pressure;Samples;Min_cycle;Max_cycle;Signal;HPM_P1;HPM_P2
2024/04/07 00:01:20;;;;;;;11.00;10.30;;;;;;;15.26;56.43;145538.56;5131252;27;20201;-52
2024/04/07 00:03:46;;;;;;;11.20;10.50;;;;;;;15.29;53.55;145544.63;5131419;27;20204;-52
2024/04/07 00:06:12;;;;;;;11.70;11.00;;;;;;;15.33;53.69;145555.53;5131072;27;20733;-53
2024/04/07 00:08:38;;;;;;;10.77;10.17;;;;;;;15.41;53.36;145574.97;5131013;27;20227;-52
2024/04/07 00:11:04;;;;;;;11.43;10.83;;;;;;;15.38;54.37;145566.50;5130973;27;20663;-52
2024/04/07 00:13:31;;;;;;;11.50;10.70;;;;;;;15.36;55.37;145561.59;5131125;27;20728;-51
2024/04/07 00:15:58;;;;;;;11.23;10.53;;;;;;;15.30;56.88;145548.25;5130846;27;20202;-53
2024/04/07 00:18:23;;;;;;;11.60;10.80;;;;;;;15.24;56.91;145533.72;5131112;27;20262;-53
2024/04/07 00:21:00;;;;;;;11.33;10.60;;;;;;;15.15;58.99;145510.59;5130800;27;20671;-52
2024/04/07 00:23:25;;;;;;;11.03;10.33;;;;;;;15.11;58.26;145500.91;5130999;27;20311;-51
2024/04/07 00:25:52;;;;;;;11.23;10.53;;;;;;;15.02;59.87;145479.03;5130628;27;20743;-51
2024/04/07 00:28:17;;;;;;;11.40;10.70;;;;;;;14.98;58.47;145470.53;5130632;27;20621;-53
2024/04/07 00:30:45;;;;;;;11.23;10.63;;;;;;;14.91;59.93;145453.53;5130899;27;20192;-51
2024/04/07 00:33:10;;;;;;;10.80;10.20;;;;;;;14.86;60.38;145440.19;5130561;27;20233;-51
2024/04/07 00:35:37;;;;;;;11.40;10.40;;;;;;;14.79;60.17;145424.38;5130682;27;20216;-52
2024/04/07 00:38:02;;;;;;;11.73;10.93;;;;;;;14.75;59.53;145415.88;5130682;27;20261;-52
2024/04/07 00:40:29;;;;;;;11.60;10.90;;;;;;;14.72;61.13;145408.63;5130597;27;20197;-52
2024/04/07 00:42:55;;;;;;;11.10;10.50;;;;;;;14.70;60.89;145402.53;5130410;27;20196;-53
2024/04/07 00:45:21;;;;;;;11.27;10.57;;;;;;;14.69;61.85;145401.34;5130463;27;20201;-52
2024/04/07 00:47:48;;;;;;;10.97;10.37;;;;;;;14.63;62.16;145386.78;5130543;27;20193;-52
2024/04/07 00:50:15;;;;;;;11.70;11.00;;;;;;;14.56;61.89;145368.56;5130364;27;20205;-51
2024/04/07 00:52:41;;;;;;;11.50;10.80;;;;;;;14.52;61.77;145360.06;5130391;27;20582;-52
2024/04/07 00:55:08;;;;;;;11.80;10.90;;;;;;;14.47;61.53;145346.72;5130139;27;20224;-51
2024/04/07 00:57:34;;;;;;;11.37;10.70;;;;;;;14.40;60.78;145329.72;5129274;27;20295;-52
2024/04/07 01:00:00;;;;;;;11.27;10.67;;;;;;;14.42;60.38;145334.56;5130286;27;20288;-52
2024/04/07 01:02:26;;;;;;;11.03;10.37;;;;;;;14.41;61.55;145333.34;5130280;27;20733;-53
2024/04/07 01:04:53;;;;;;;11.07;10.10;;;;;;;14.32;60.07;145311.50;5130376;27;20204;-53
2024/04/07 01:07:19;;;;;;;11.20;10.50;;;;;;;14.52;56.64;145360.06;5130236;27;20205;-52
2024/04/07 01:09:46;;;;;;;10.73;10.03;;;;;;;14.48;58.58;145350.31;5130004;27;20220;-51
2024/04/07 01:12:24;;;;;;;10.97;10.23;;;;;;;14.49;60.11;145352.78;5129950;27;20203;-52
2024/04/07 01:14:50;;;;;;;10.50;9.80;;;;;;;14.47;61.38;145347.94;5129768;27;20243;-51
2024/04/07 01:17:16;;;;;;;10.87;10.27;;;;;;;14.45;62.87;145341.88;5129772;27;20197;-53
2024/04/07 01:19:44;;;;;;;10.87;10.17;;;;;;;14.40;61.72;145329.72;5129896;27;20271;-55
2024/04/07 01:22:12;;;;;;;10.90;10.10;;;;;;;14.32;61.77;145311.50;5129839;27;20687;-54
2024/04/07 01:24:39;;;;;;;10.33;9.83;;;;;;;14.34;62.16;145315.16;5129531;27;20192;-52
2024/04/07 01:27:05;;;;;;;10.60;10.00;;;;;;;14.33;60.88;145312.72;5129908;27;20200;-52
2024/04/07 01:29:31;;;;;;;11.27;10.57;;;;;;;14.31;61.79;145307.81;5129849;27;20299;-51
2024/04/07 01:31:57;;;;;;;10.87;10.27;;;;;;;14.31;61.88;145309.03;5129906;27;20261;-52
2024/04/07 01:34:23;;;;;;;10.90;10.07;;;;;;;14.27;62.99;145300.53;5129705;27;20232;-51
2024/04/07 01:36:49;;;;;;;10.50;9.80;;;;;;;14.26;63.11;145298.09;5129514;27;20204;-52
2024/04/07 01:39:15;;;;;;;10.90;10.30;;;;;;;14.23;63.35;145290.81;5129545;27;20273;-53
2024/04/07 01:41:42;;;;;;;10.80;10.20;;;;;;;14.16;63.32;145273.84;5129582;27;20200;-52
2024/04/07 01:44:08;;;;;;;11.07;10.33;;;;;;;14.12;63.26;145262.94;5129542;27;20602;-51
2024/04/07 01:46:34;;;;;;;10.40;9.80;;;;;;;14.11;62.65;145261.72;5129541;27;20560;-51
2024/04/07 01:49:00;;;;;;;11.37;10.57;;;;;;;14.11;62.57;145261.72;5129579;27;20253;-53
2024/04/07 01:51:25;;;;;;;10.87;10.27;;;;;;;14.12;63.14;145262.94;5129498;27;20200;-53
2024/04/07 01:53:52;;;;;;;11.07;10.37;;;;;;;14.10;62.23;145258.03;5129179;27;20257;-51
2024/04/07 01:56:17;;;;;;;10.67;9.97;;;;;;;14.11;61.42;145260.47;5129495;27;20201;-52
2024/04/07 01:58:45;;;;;;;10.80;10.00;;;;;;;14.14;61.59;145267.78;5129570;27;20359;-52
2024/04/07 02:01:10;;;;;;;10.63;9.93;;;;;;;14.23;61.97;145289.63;5129308;27;20209;-52
2024/04/07 02:03:37;;;;;;;11.10;10.40;;;;;;;14.24;61.72;145293.25;5129327;27;20249;-51
2024/04/07 02:06:03;;;;;;;10.83;10.00;;;;;;;14.28;62.73;145301.75;5129362;27;20203;-51
2024/04/07 02:08:30;;;;;;;10.77;10.00;;;;;;;14.28;61.89;145301.75;5131990;27;20584;-53
2024/04/07 02:10:55;;;;;;;10.90;10.30;;;;;;;14.15;61.64;145270.22;5133364;27;20200;-51
2024/04/07 02:13:22;;;;;;;10.70;10.10;;;;;;;14.28;62.40;145301.75;5133397;27;20201;-52
2024/04/07 02:15:49;;;;;;;10.50;9.90;;;;;;;14.30;62.23;145306.59;5133318;27;20311;-51
2024/04/07 02:18:15;;;;;;;10.07;9.50;;;;;;;14.32;62.12;145311.50;5133227;27;20214;-53
2024/04/07 02:20:40;;;;;;;10.37;9.77;;;;;;;14.32;62.20;145310.31;5133284;27;20196;-52
2024/04/07 02:23:07;;;;;;;10.43;9.83;;;;;;;14.35;62.06;145317.56;5133220;27;20207;-52
2024/04/07 02:25:32;;;;;;;10.70;10.10;;;;;;;14.24;60.79;145292.03;5133172;27;20243;-51
2024/04/07 02:27:59;;;;;;;10.30;9.70;;;;;;;14.47;59.36;145346.72;5132800;27;20200;-52
2024/04/07 02:30:24;;;;;;;10.53;9.90;;;;;;;14.56;58.41;145368.56;5133095;27;20200;-52
2024/04/07 02:32:52;;;;;;;10.33;9.73;;;;;;;14.75;58.14;145414.69;5132910;27;20729;-52
2024/04/07 02:35:17;;;;;;;10.40;9.80;;;;;;;14.94;56.45;145460.84;5132904;27;20277;-51
2024/04/07 02:37:44;;;;;;;10.00;9.50;;;;;;;15.11;55.31;145502.09;5132962;27;20625;-51
2024/04/07 02:40:10;;;;;;;10.50;9.87;;;;;;;15.31;54.92;145550.69;5132695;27;20628;-52
2024/04/07 02:42:36;;;;;;;10.63;9.83;;;;;;;15.40;54.75;145572.56;5132703;27;20192;-52
2024/04/07 02:48:05;;;;;;;10.30;9.70;;;;;;;15.57;53.91;145611.47;5132871;27;20196;-53
2024/04/07 02:50:34;;;;;;;10.30;9.63;;;;;;;15.62;54.39;145623.63;5132959;27;20218;-52
2024/04/07 02:53:00;;;;;;;10.27;9.67;;;;;;;15.68;54.23;145639.41;5132741;27;20680;-52
2024/04/07 02:55:27;;;;;;;10.53;9.93;;;;;;;15.71;54.13;145646.69;5132710;27;20297;-52
2024/04/07 02:57:52;;;;;;;10.70;10.10;;;;;;;15.77;54.41;145661.28;5132562;27;20208;-52
2024/04/07 03:00:19;;;;;;;10.67;9.97;;;;;;;15.79;54.02;145664.94;5132462;27;20261;-52
2024/04/07 03:02:45;;;;;;;10.27;9.67;;;;;;;15.76;53.78;145658.88;5132758;27;20238;-51
2024/04/07 03:05:12;;;;;;;10.37;9.77;;;;;;;15.79;54.41;145666.13;5132282;27;20235;-52
2024/04/07 03:07:39;;;;;;;10.50;9.90;;;;;;;15.77;54.89;145660.06;5132330;27;20196;-51
2024/04/07 03:10:06;;;;;;;10.30;9.77;;;;;;;15.76;54.68;145658.88;5132120;27;20224;-51
2024/04/07 03:12:31;;;;;;;10.23;9.43;;;;;;;15.74;54.68;145653.97;5132391;27;20656;-52
2024/04/07 03:15:01;;;;;;;10.40;9.80;;;;;;;15.74;55.65;145652.75;5131902;27;20232;-52
2024/04/07 03:17:26;;;;;;;10.53;9.83;;;;;;;15.79;54.87;145666.13;5132242;27;20212;-52
2024/04/07 03:19:54;;;;;;;11.00;10.30;;;;;;;15.86;54.91;145683.16;5131147;27;20226;-53
2024/04/07 03:22:19;;;;;;;10.43;9.83;;;;;;;15.92;54.15;145696.53;5132086;27;20225;-52
2024/04/07 03:24:47;;;;;;;10.23;9.63;;;;;;;15.86;55.03;145683.16;5132017;27;20234;-53
2024/04/07 03:27:12;;;;;;;10.67;10.07;;;;;;;15.83;54.98;145675.88;5132312;27;20652;-51
2024/04/07 03:29:39;;;;;;;10.13;9.63;;;;;;;15.79;55.36;145666.13;5131797;27;20207;-53
2024/04/07 03:32:05;;;;;;;10.53;9.83;;;;;;;15.73;56.05;145650.34;5131864;27;20560;-53
2024/04/07 03:34:31;;;;;;;10.63;9.93;;;;;;;15.67;56.57;145635.78;5131931;27;20273;-52
2024/04/07 03:36:57;;;;;;;10.43;9.83;;;;;;;15.59;57.13;145617.56;5131923;27;20246;-51
2024/04/07 03:39:23;;;;;;;10.53;9.93;;;;;;;15.52;58.04;145599.34;5131858;27;20204;-54
2024/04/07 03:41:51;;;;;;;10.20;9.60;;;;;;;15.45;57.91;145583.50;5131732;27;20196;-52
2024/04/07 03:44:18;;;;;;;10.50;9.70;;;;;;;15.39;58.41;145570.13;5131526;27;20201;-51
2024/04/07 03:46:47;;;;;;;10.27;9.67;;;;;;;15.36;58.57;145561.59;5131894;27;20212;-53
2024/04/07 03:49:12;;;;;;;10.40;9.70;;;;;;;15.32;58.07;145553.13;5131803;27;20204;-52
2024/04/07 03:51:39;;;;;;;9.87;9.30;;;;;;;15.26;59.30;145537.34;5131626;27;20261;-54
2024/04/07 03:54:04;;;;;;;10.00;9.50;;;;;;;15.23;59.40;145530.03;5131220;27;20196;-51
2024/04/07 03:56:30;;;;;;;10.27;9.77;;;;;;;15.23;59.54;145530.03;5131743;27;20609;-53
2024/04/07 03:58:57;;;;;;;10.50;9.90;;;;;;;15.24;59.56;145533.72;5131240;27;20245;-51
2024/04/07 04:01:24;;;;;;;9.90;9.20;;;;;;;15.25;59.71;145534.88;5131461;27;20421;-52
2024/04/07 04:03:49;;;;;;;10.03;9.50;;;;;;;15.24;58.80;145532.50;5131380;27;20208;-51
2024/04/07 04:06:16;;;;;;;10.30;9.70;;;;;;;15.24;59.91;145533.72;5131119;27;20711;-52
2024/04/07 04:08:41;;;;;;;10.53;9.73;;;;;;;15.25;60.05;145534.88;5131168;27;20258;-51
2024/04/07 04:11:09;;;;;;;10.17;9.47;;;;;;;15.27;59.98;145539.78;5131084;27;20668;-51
2024/04/07 04:13:36;;;;;;;10.67;10.07;;;;;;;15.21;59.94;145525.19;5130866;27;20281;-52
2024/04/07 04:16:05;;;;;;;10.27;9.67;;;;;;;15.15;60.31;145511.84;5131074;27;20279;-52
2024/04/07 04:18:30;;;;;;;10.33;9.73;;;;;;;15.09;61.14;145496.03;5131133;27;20290;-53
2024/04/07 04:20:57;;;;;;;10.10;9.50;;;;;;;15.05;60.58;145486.34;5130824;27;20291;-52
2024/04/07 04:23:22;;;;;;;10.40;9.80;;;;;;;14.99;60.94;145472.97;5130901;27;20254;-53
2024/04/07 04:25:52;;;;;;;10.10;9.50;;;;;;;14.98;62.13;145469.31;5130864;27;20193;-50
2024/04/07 04:28:18;;;;;;;10.60;9.90;;;;;;;14.89;63.44;145448.66;5130519;27;20740;-52
2024/04/07 04:30:51;;;;;;;10.00;9.40;;;;;;;14.83;63.56;145435.31;5130816;27;20295;-51
2024/04/07 04:33:20;;;;;;;10.30;9.50;;;;;;;14.74;63.53;145412.25;5130676;27;20257;-52
2024/04/07 04:35:46;;;;;;;10.40;9.80;;;;;;;14.70;65.81;145403.75;5130573;27;20224;-51
2024/04/07 04:38:12;;;;;;;10.00;9.47;;;;;;;14.65;66.68;145391.59;5130454;27;20193;-52
2024/04/07 04:40:38;;;;;;;10.27;9.67;;;;;;;14.60;66.32;145379.47;5130580;27;20756;-51
2024/04/07 04:43:03;;;;;;;10.37;9.77;;;;;;;14.56;66.20;145369.75;5130419;27;20204;-51
2024/04/07 04:45:30;;;;;;;10.30;9.70;;;;;;;14.54;66.22;145363.69;5130451;27;20250;-52
2024/04/07 04:47:55;;;;;;;10.50;9.80;;;;;;;14.52;67.30;145360.06;5130420;27;20450;-51
2024/04/07 04:50:23;;;;;;;10.30;9.70;;;;;;;14.47;66.47;145347.94;5130399;27;20635;-51
2024/04/07 04:52:48;;;;;;;10.50;9.90;;;;;;;14.42;66.15;145335.78;5130260;27;20248;-52
2024/04/07 04:55:15;;;;;;;10.17;9.67;;;;;;;14.39;67.65;145328.50;5130079;27;20231;-51
2024/04/07 04:57:40;;;;;;;10.70;10.10;;;;;;;14.37;67.48;145322.44;5130428;27;20407;-51
2024/04/07 05:00:10;;;;;;;10.13;9.43;;;;;;;14.33;67.74;145313.94;5130213;27;20204;-51
2024/04/07 05:02:35;;;;;;;10.57;9.97;;;;;;;14.35;67.40;145317.56;5130353;27;20649;-54
2024/04/07 05:05:02;;;;;;;10.77;10.00;;;;;;;14.32;68.06;145310.31;5130288;27;20224;-51
2024/04/07 05:07:29;;;;;;;10.43;9.83;;;;;;;14.32;68.27;145311.50;5130645;27;20201;-52
2024/04/07 05:09:55;;;;;;;10.47;9.83;;;;;;;14.33;68.99;145312.72;5129856;27;20220;-52
2024/04/07 05:12:21;;;;;;;10.23;9.63;;;;;;;14.34;67.89;145315.16;5130228;27;20204;-52
2024/04/07 05:14:47;;;;;;;10.17;9.57;;;;;;;14.35;68.91;145318.78;5129920;27;20232;-52
2024/04/07 05:17:13;;;;;;;8.80;8.10;;;;;;;14.39;68.55;145327.28;5130104;27;20204;-51
2024/04/07 05:19:39;;;;;;;10.50;9.90;;;;;;;14.41;67.96;145333.34;5129984;27;20241;-53
2024/04/07 05:22:04;;;;;;;10.27;9.67;;;;;;;14.44;68.48;145340.63;5129916;27;20249;-52
2024/04/07 05:24:32;;;;;;;10.90;10.20;;;;;;;14.52;64.42;145360.06;5130150;27;20617;-52
2024/04/07 05:26:58;;;;;;;10.67;9.97;;;;;;;14.70;63.08;145403.75;5129881;27;20548;-51
2024/04/07 05:29:24;;;;;;;10.87;10.10;;;;;;;14.75;63.76;145414.69;5130189;27;20249;-51
2024/04/07 05:31:50;;;;;;;10.07;9.57;;;;;;;14.77;64.26;145420.75;5129846;27;20208;-51
2024/04/07 05:34:16;;;;;;;9.53;9.03;;;;;;;14.81;64.59;145430.47;5129915;27;20200;-51
2024/04/07 05:36:41;;;;;;;10.47;9.80;;;;;;;14.89;63.05;145447.47;5130119;27;20220;-51
2024/04/07 05:39:08;;;;;;;10.23;9.63;;;;;;;14.93;64.02;145457.16;5129660;27;20660;-51
2024/04/07 05:41:35;;;;;;;10.00;9.40;;;;;;;14.98;64.14;145469.31;5129674;27;20272;-51
2024/04/07 05:44:01;;;;;;;10.57;9.77;;;;;;;15.01;64.19;145477.81;5129469;27;20216;-52
2024/04/07 05:46:27;;;;;;;10.67;10.03;;;;;;;15.04;64.69;145483.88;5129790;27;20201;-50
2024/04/07 05:48:53;;;;;;;10.17;9.60;;;;;;;15.04;65.02;145485.13;5129886;27;20211;-51
2024/04/07 05:51:18;;;;;;;10.67;10.07;;;;;;;15.17;63.26;145516.69;5129615;27;20196;-51
2024/04/07 05:53:45;;;;;;;10.47;9.77;;;;;;;15.09;65.48;145496.03;5129675;27;20208;-51
2024/04/07 05:56:10;;;;;;;10.90;10.10;;;;;;;15.13;65.79;145505.75;5129445;27;20224;-52
2024/04/07 05:58:38;;;;;;;11.00;10.20;;;;;;;15.11;nan;145502.09;5129536;27;20663;-52
2024/04/07 06:01:04;;;;;;;10.40;9.70;;;;;;;15.17;67.07;145516.69;5129526;27;20269;-51
2024/04/07 06:03:30;;;;;;;9.90;9.40;;;;;;;15.28;67.38;145542.19;5130114;27;20648;-51
2024/04/07 06:05:55;;;;;;;9.80;9.20;;;;;;;15.40;66.99;145571.34;5129460;27;20192;-50
2024/04/07 06:08:22;;;;;;;9.80;9.30;;;;;;;15.58;67.67;145613.88;5129569;27;20197;-51
2024/04/07 06:10:47;;;;;;;10.40;9.73;;;;;;;15.76;68.12;145658.88;5129289;27;20633;-50
2024/04/07 06:13:14;;;;;;;10.23;9.63;;;;;;;15.93;67.74;145700.16;5129707;27;20257;-50
2024/04/07 06:15:40;;;;;;;10.43;9.73;;;;;;;16.13;67.67;145747.56;5129158;27;20236;-53
2024/04/07 06:18:07;;;;;;;10.93;10.23;;;;;;;16.28;67.23;145784.06;5129375;27;20208;-54
2024/04/07 06:20:32;;;;;;;17.60;14.77;;;;;;;16.47;66.68;145829.03;5129508;27;20212;-51
2024/04/07 06:22:59;;;;;;;16.53;14.10;;;;;;;16.67;64.99;145877.66;5129188;27;20227;-52
2024/04/07 06:25:24;;;;;;;43.00;25.77;;;;;;;16.80;65.03;145908.09;5129366;27;20269;-51
2024/04/07 06:27:51;;;;;;;41.93;26.23;;;;;;;17.08;64.91;145976.16;5129317;27;20654;-52
2024/04/07 06:30:16;;;;;;;34.67;22.63;;;;;;;17.32;63.98;146034.59;5129326;27;20257;-51
2024/04/07 06:32:44;;;;;;;39.97;25.10;;;;;;;17.49;64.38;146075.91;5129398;27;20205;-51
2024/04/07 06:35:10;;;;;;;32.03;22.93;;;;;;;17.60;64.40;146102.72;5129142;27;20314;-54
2024/04/07 06:37:36;;;;;;;50.07;31.90;;;;;;;17.63;64.36;146110.03;5129122;27;20295;-51
2024/04/07 06:40:02;;;;;;;28.83;21.10;;;;;;;17.67;62.85;146119.78;5129282;27;20260;-52
2024/04/07 06:42:30;;;;;;;19.40;16.40;;;;;;;17.65;63.27;146113.72;5129268;27;20192;-51
2024/04/07 06:44:56;;;;;;;19.10;15.90;;;;;;;17.80;63.59;146148.97;5129295;27;20347;-51
2024/04/07 06:47:23;;;;;;;19.00;16.80;;;;;;;17.82;63.38;146153.81;5129245;27;20204;-51
2024/04/07 06:49:50;;;;;;;17.37;15.67;;;;;;;17.87;64.08;146167.22;5129300;27;20204;-50
2024/04/07 06:52:17;;;;;;;14.93;13.50;;;;;;;17.87;65.13;146167.22;5128995;27;20204;-50
2024/04/07 06:54:43;;;;;;;14.50;13.27;;;;;;;17.88;64.59;146168.44;5130646;27;20204;-51
2024/04/07 06:57:10;;;;;;;15.53;13.50;;;;;;;17.98;64.56;146193.97;5132713;27;20204;-51
2024/04/07 06:59:35;;;;;;;14.27;12.90;;;;;;;18.23;65.99;146253.63;5132624;27;20208;-53
2024/04/07 07:02:02;;;;;;;14.00;12.70;;;;;;;18.61;65.24;146344.97;5132664;27;20429;-51
2024/04/07 07:04:27;;;;;;;11.50;10.57;;;;;;;18.96;63.61;146430.25;5132859;27;20730;-49
2024/04/07 07:06:55;;;;;;;11.18;10.27;;;;;;;19.38;62.53;146531.38;5132702;27;20283;-51
2024/04/07 07:09:20;;;;;;;12.95;11.82;;;;;;;19.97;59.61;146675.16;5131106;27;20224;-51
2024/04/07 07:11:47;;;;;;;13.27;12.18;;;;;;;20.53;59.25;146810.53;5131621;27;20257;-51
2024/04/07 07:14:12;;;;;;;12.43;11.40;;;;;;;21.12;58.28;146953.25;5132160;27;20273;-51
2024/04/07 07:16:39;;;;;;;12.93;11.95;;;;;;;21.51;53.29;147047.19;5132266;27;20216;-51
2024/04/07 07:19:04;;;;;;;12.60;11.60;;;;;;;21.64;51.81;147077.72;5132325;27;20205;-51
2024/04/07 07:21:31;;;;;;;12.10;11.30;;;;;;;21.71;50.39;147094.78;5132595;27;20257;-51
2024/04/07 07:23:57;;;;;;;11.82;10.82;;;;;;;21.71;49.55;147094.78;5132027;27;20196;-51
2024/04/07 07:26:24;;;;;;;11.75;10.85;;;;;;;21.68;49.51;147087.47;5132071;27;20671;-51
2024/04/07 07:28:49;;;;;;;11.98;11.15;;;;;;;21.69;50.99;147089.91;5132029;27;20265;-52
2024/04/07 07:31:15;;;;;;;11.52;10.52;;;;;;;21.57;50.23;147060.59;5132063;27;20660;-50
2024/04/07 07:33:41;;;;;;;11.77;10.90;;;;;;;21.60;51.53;147067.94;5132204;27;20762;-52
2024/04/07 07:36:07;;;;;;;10.52;9.73;;;;;;;21.61;54.46;147070.41;5131882;27;20417;-52
2024/04/07 07:38:33;;;;;;;12.10;10.43;;;;;;;21.31;51.59;146997.19;5132073;27;20204;-52
2024/04/07 07:41:01;;;;;;;10.82;9.90;;;;;;;21.38;50.13;147014.25;5131855;27;20736;-51
2024/04/07 07:43:26;;;;;;;10.63;9.82;;;;;;;21.53;47.50;147052.06;5131925;27;20200;-51
2024/04/07 07:45:53;;;;;;;10.80;10.00;;;;;;;21.75;46.06;147105.75;5131797;27;20205;-51
2024/04/07 07:48:19;;;;;;;10.32;9.63;;;;;;;22.20;46.33;147214.44;5131662;27;20291;-50
2024/04/07 07:50:45;;;;;;;10.25;9.60;;;;;;;22.74;42.91;147345.13;5131806;27;20636;-50
2024/04/07 07:53:11;;;;;;;11.60;10.55;;;;;;;23.51;40.13;147532.06;5131677;27;20245;-50
2024/04/07 07:55:37;;;;;;;11.93;10.25;;;;;;;25.19;36.21;147938.03;5131375;27;20224;-54
2024/04/07 07:58:04;;;;;;;10.70;9.95;;;;;;;27.03;35.72;148386.09;5131471;27;20609;-51
2024/04/07 08:00:30;;;;;;;11.90;10.90;;;;;;;27.80;34.69;148571.09;5131600;27;20192;-50
2024/04/07 08:02:56;;;;;;;12.00;10.93;;;;;;;27.69;35.15;148545.38;5131444;27;20621;-51
2024/04/07 08:05:22;;;;;;;11.38;10.63;;;;;;;27.39;34.39;148473.03;5131014;27;20201;-52
2024/04/07 08:07:48;;;;;;;12.30;11.20;;;;;;;27.21;33.16;148427.75;5131283;27;20204;-50
2024/04/07 08:10:14;;;;;;;11.82;10.80;;;;;;;27.71;32.53;148549.03;5131245;27;20716;-51
2024/04/07 08:12:40;;;;;;;10.82;10.13;;;;;;;28.12;32.42;148650.78;5131247;27;20744;-51
2024/04/07 08:15:08;;;;;;;11.60;10.63;;;;;;;27.67;32.15;148540.47;5130982;27;20236;-52
2024/04/07 08:17:34;;;;;;;10.80;10.10;;;;;;;27.38;32.21;148470.56;5131027;27;20200;-51
2024/04/07 08:20:01;;;;;;;11.82;10.82;;;;;;;27.15;32.98;148413.03;5131259;27;20211;-52
2024/04/07 08:22:27;;;;;;;11.77;10.77;;;;;;;26.99;31.14;148376.25;5131232;27;20246;-51
2024/04/07 08:24:54;;;;;;;11.30;10.30;;;;;;;27.30;31.16;148450.97;5130951;27;20295;-53
2024/04/07 08:27:21;;;;;;;12.23;10.32;;;;;;;27.33;32.21;148458.34;5130890;27;20200;-51
2024/04/07 08:29:48;;;;;;;11.52;10.63;;;;;;;27.17;30.86;148417.91;5130814;27;20208;-50
2024/04/07 08:32:15;;;;;;;11.52;10.38;;;;;;;26.31;31.79;148210.94;5130770;27;20200;-51
2024/04/07 08:34:41;;;;;;;11.15;10.35;;;;;;;26.37;32.29;148225.63;5130785;27;20671;-53
2024/04/07 08:37:08;;;;;;;11.63;10.30;;;;;;;26.35;32.34;148220.75;5130395;27;20289;-51
2024/04/07 08:39:34;;;;;;;10.90;10.20;;;;;;;26.41;31.29;148234.22;5130706;27;20588;-51
2024/04/07 08:42:02;;;;;;;11.68;10.65;;;;;;;26.04;32.42;148143.63;5130549;27;20205;-51
2024/04/07 08:44:29;;;;;;;11.30;10.25;;;;;;;25.82;32.48;148091.00;5130630;27;20576;-51
2024/04/07 08:46:58;;;;;;;11.48;10.48;;;;;;;25.97;32.99;148127.69;5130310;27;20228;-51
2024/04/07 08:49:26;;;;;;;11.93;10.70;;;;;;;26.00;32.42;148133.81;5130440;27;20323;-51
2024/04/07 08:51:52;;;;;;;11.68;10.70;;;;;;;25.96;32.95;148124.03;5130327;27;20196;-51
2024/04/07 08:54:18;;;;;;;11.85;10.65;;;;;;;25.64;32.64;148046.91;5130318;27;20260;-50
2024/04/07 08:56:45;;;;;;;11.90;10.70;;;;;;;25.50;34.17;148012.66;5130317;27;20466;-50
2024/04/07 08:59:14;;;;;;;11.57;10.57;;;;;;;25.64;34.50;148048.16;5130214;27;20204;-51
2024/04/07 09:01:44;;;;;;;11.63;10.57;;;;;;;26.03;33.46;148141.16;5130130;27;20683;-51
2024/04/07 09:04:11;;;;;;;11.38;10.27;;;;;;;26.60;32.11;148279.50;5130103;27;20249;-52
2024/04/07 09:06:38;;;;;;;11.73;10.68;;;;;;;27.75;31.31;148558.84;5130038;27;20346;-51
2024/04/07 09:09:05;;;;;;;11.63;10.45;;;;;;;28.62;30.06;148770.91;5130065;27;20220;-51
2024/04/07 09:11:35;;;;;;;11.80;10.77;;;;;;;29.58;28.54;149005.22;5130279;27;20204;-52
2024/04/07 09:14:01;;;;;;;11.82;10.80;;;;;;;30.86;28.55;149315.72;5129949;27;20754;-51
2024/04/07 09:16:27;;;;;;;12.00;10.90;;;;;;;32.14;26.40;149629.00;5129744;27;20224;-51
2024/04/07 09:18:54;;;;;;;11.73;10.80;;;;;;;32.55;26.31;149727.34;5129499;27;20201;-51
2024/04/07 09:21:21;;;;;;;12.13;11.07;;;;;;;31.91;28.49;149572.47;5130059;27;20287;-51
2024/04/07 09:23:49;;;;;;;12.27;11.07;;;;;;;31.04;28.93;149361.19;5129973;27;20669;-51
2024/04/07 09:26:15;;;;;;;12.23;11.00;;;;;;;30.61;29.54;149255.59;5129762;27;20243;-51
2024/04/07 09:28:41;;;;;;;12.35;11.18;;;;;;;31.03;29.09;149358.75;5129860;27;20192;-50
2024/04/07 09:31:08;;;;;;;12.05;10.85;;;;;;;31.06;28.81;149364.91;5129813;27;20200;-51
2024/04/07 09:33:35;;;;;;;12.20;11.25;;;;;;;30.56;28.85;149243.31;5129793;27;20199;-52
2024/04/07 09:36:00;;;;;;;12.95;11.70;;;;;;;29.97;30.00;149098.47;5129794;27;20220;-52
2024/04/07 09:38:27;;;;;;;13.43;11.75;;;;;;;29.00;31.75;148862.88;5129604;27;20237;-52
2024/04/07 09:40:56;;;;;;;12.40;11.45;;;;;;;27.64;33.70;148534.34;5129690;27;20201;-51
2024/04/07 09:43:24;;;;;;;12.90;11.65;;;;;;;27.04;35.12;148388.56;5129941;27;20838;-51
2024/04/07 09:45:51;;;;;;;12.57;11.43;;;;;;;26.27;35.82;148201.16;5129837;27;20257;-52
2024/04/07 09:48:20;;;;;;;12.23;10.95;;;;;;;26.24;36.42;148192.59;5129466;27;20200;-51
2024/04/07 09:50:54;;;;;;;12.02;11.02;;;;;;;25.86;36.77;148100.75;5129779;27;20227;-51
2024/04/07 09:53:21;;;;;;;11.63;10.73;;;;;;;26.50;36.64;148257.47;5129434;27;20196;-51
2024/04/07 09:55:49;;;;;;;11.93;11.07;;;;;;;26.92;34.92;148359.13;5129603;27;20695;-52
2024/04/07 09:58:18;;;;;;;11.45;10.55;;;;;;;27.93;34.86;148602.94;5129394;27;20228;-54
2024/04/07 10:00:43;;;;;;;12.70;11.35;;;;;;;28.61;33.31;148768.44;5129757;27;20252;-53
2024/04/07 10:03:11;;;;;;;11.63;10.70;;;;;;;29.30;32.28;148937.75;5129373;27;20196;-51
2024/04/07 10:05:37;;;;;;;11.98;11.07;;;;;;;29.48;31.80;148980.69;5129319;27;20200;-52
2024/04/07 10:08:04;;;;;;;11.98;10.80;;;;;;;28.89;31.38;148837.16;5129386;27;20241;-50
2024/04/07 10:10:30;;;;;;;12.25;11.25;;;;;;;28.77;32.78;148808.94;5129495;27;20220;-52
2024/04/07 10:13:07;;;;;;;12.35;11.15;;;;;;;28.46;32.42;148731.69;5129306;27;20212;-51
2024/04/07 10:15:36;;;;;;;11.77;10.77;;;;;;;28.29;32.21;148690.00;5129322;27;20644;-52
2024/04/07 10:18:11;;;;;;;10.73;9.82;;;;;;;28.18;32.89;148665.50;5129442;27;20698;-52
2024/04/07 10:20:37;;;;;;;11.13;10.25;;;;;;;28.00;32.63;148621.34;5129405;27;20228;-50
2024/04/07 10:23:06;;;;;;;11.68;10.52;;;;;;;27.50;33.05;148500.03;5129579;27;20742;-52
2024/04/07 10:25:33;;;;;;;11.50;10.48;;;;;;;27.44;33.72;148484.09;5129452;27;20550;-50
2024/04/07 10:28:01;;;;;;;11.40;10.32;;;;;;;27.40;33.09;148474.28;5129286;27;20291;-51
2024/04/07 10:30:26;;;;;;;11.88;10.88;;;;;;;27.39;33.37;148473.03;5133291;27;20671;-52
2024/04/07 10:32:54;;;;;;;12.13;11.02;;;;;;;26.76;33.61;148318.69;5133388;27;20205;-52
2024/04/07 10:35:22;;;;;;;12.15;11.10;;;;;;;26.08;35.13;148153.38;5132954;27;20196;-50
2024/04/07 10:37:51;;;;;;;12.13;10.93;;;;;;;25.85;34.98;148098.31;5132981;27;20216;-51
2024/04/07 10:40:18;;;;;;;12.00;11.00;;;;;;;25.97;34.34;148127.69;5132930;27;20196;-51
2024/04/07 10:42:44;;;;;;;13.05;11.63;;;;;;;25.39;35.77;147985.69;5133131;27;20203;-51
2024/04/07 10:45:12;;;;;;;11.77;10.80;;;;;;;25.69;34.53;148059.16;5132839;27;20625;-50
2024/04/07 10:47:38;;;;;;;10.57;9.65;;;;;;;25.67;35.70;148054.25;5132724;27;20340;-50
2024/04/07 10:50:07;;;;;;;11.85;10.88;;;;;;;25.63;35.21;148044.50;5132723;27;20283;-51
2024/04/07 10:52:33;;;;;;;12.00;11.10;;;;;;;25.67;35.33;148055.50;5132866;27;20207;-52
2024/04/07 10:55:00;;;;;;;11.80;10.90;;;;;;;25.80;35.17;148087.31;5132656;27;20663;-50
2024/04/07 10:57:26;;;;;;;12.32;11.32;;;;;;;25.48;35.58;148009.00;5132622;27;20251;-52
2024/04/07 10:59:52;;;;;;;11.90;10.80;;;;;;;25.84;35.41;148095.88;5132642;27;20244;-51
2024/04/07 11:02:19;;;;;;;11.55;10.57;;;;;;;25.79;34.82;148083.66;5132598;27;20208;-51
2024/04/07 11:04:45;;;;;;;12.27;11.00;;;;;;;26.07;35.79;148152.16;5133202;27;20200;-52
2024/04/07 11:07:13;;;;;;;11.48;10.60;;;;;;;26.11;34.59;148160.72;5132547;27;20249;-52
2024/04/07 11:09:40;;;;;;;11.50;10.50;;;;;;;26.35;34.93;148219.53;5132367;27;20328;-53
2024/04/07 11:12:07;;;;;;;11.55;10.70;;;;;;;26.72;34.37;148310.09;5132865;27;20514;-51